Time;durP1;ratioP1;P1;durP2;ratioP2;P2;SDS_P1;SDS_P2;PMS_P1;PMS_P2;Temp;Humidity;BMP_temperature;BMP_pressure;BME280_temperature;BME280_humidity;BME280_pressure;Samples;Min_cycle;Max_cycle;Signal;HPM_P1;HPM_P2
2021/12/09 00:01:50;;;;;;;18.23;9.07;;;;;;;-144.19;91.53;76984.72;5036017;28;20136;-90
2021/12/09 00:04:31;;;;;;;16.13;9.63;;;;;;;-144.19;91.85;76976.84;5038912;28;20123;-89
2021/12/09 00:07:00;;;;;;;16.92;10.18;;;;;;;-144.19;91.50;76959.13;5039250;28;20063;-91
2021/12/09 00:09:27;;;;;;;17.90;9.25;;;;;;;-144.19;91.43;76927.66;5039305;28;20050;-90
2021/12/09 00:11:54;;;;;;;18.23;8.95;;;;;;;-144.19;90.18;76909.94;5038613;28;20113;-89
2021/12/09 00:14:27;;;;;;;17.98;10.05;;;;;;;-144.19;89.92;76906.00;5039821;28;20068;-89
2021/12/09 00:16:57;;;;;;;17.08;8.98;;;;;;;-144.19;89.13;76892.22;5039786;28;20055;-90
2021/12/09 00:19:26;;;;;;;18.20;8.63;;;;;;;-144.19;88.75;76890.25;5024234;28;20492;-90
2021/12/09 00:22:11;;;;;;;12.57;8.40;;;;;;;-144.19;88.59;76894.19;5038200;28;20160;-90
2021/12/09 00:24:38;;;;;;;19.58;8.65;;;;;;;-144.19;88.85;76894.19;5039298;28;20065;-91
2021/12/09 00:27:06;;;;;;;14.65;8.38;;;;;;;-144.19;88.58;76894.19;5039802;28;20136;-92
2021/12/09 00:29:34;;;;;;;17.10;7.95;;;;;;;-144.19;88.85;76878.44;5040738;28;20084;-90
2021/12/09 00:32:03;;;;;;;12.63;8.35;;;;;;;-144.19;88.30;76882.38;5040821;28;20041;-92
2021/12/09 00:34:32;;;;;;;22.05;9.15;;;;;;;-144.19;88.17;76886.31;5040871;28;20072;-90
2021/12/09 00:44:02;;;;;;;14.27;8.05;;;;;;;-144.19;88.58;76890.25;5041897;28;20060;-90
2021/12/09 01:01:53;;;;;;;13.18;7.85;;;;;;;-144.19;88.99;76909.94;5017925;28;20058;-91
2021/12/09 01:04:19;;;;;;;;;;;;;;;-144.19;88.92;76919.78;5021293;28;20492;-90
2021/12/09 01:06:48;;;;;;;14.80;8.85;;;;;;;-144.19;89.10;76919.78;5003321;28;20307;-90
2021/12/09 01:09:14;;;;;;;14.45;8.93;;;;;;;-144.19;89.10;76917.81;5002935;28;20141;-90
2021/12/09 01:11:41;;;;;;;13.93;8.30;;;;;;;-144.19;89.15;76921.75;5003683;28;20068;-91
2021/12/09 01:14:22;;;;;;;13.77;7.88;;;;;;;-144.19;89.18;76917.81;4959273;28;20047;-90
2021/12/09 01:17:01;;;;;;;13.25;9.88;;;;;;;-144.19;89.07;76915.84;4943711;28;20087;-89
2021/12/09 01:19:30;;;;;;;15.32;8.98;;;;;;;-144.19;89.31;76923.72;4944030;29;20094;-90
2021/12/09 01:22:11;;;;;;;18.00;8.93;;;;;;;-144.19;89.31;76925.69;4929336;29;20051;-87
2021/12/09 01:24:40;;;;;;;12.48;8.50;;;;;;;-144.19;89.41;76921.75;4944157;29;20058;-90
2021/12/09 01:27:21;;;;;;;14.23;8.40;;;;;;;-144.19;89.34;76925.69;4944574;29;20043;-90
2021/12/09 01:30:07;;;;;;;15.35;9.05;;;;;;;-144.19;89.44;76929.63;4959659;29;20051;-89
2021/12/09 01:32:34;;;;;;;15.52;9.55;;;;;;;-144.19;89.68;76933.56;4929917;29;20126;-90
2021/12/09 01:35:17;;;;;;;12.98;9.15;;;;;;;-144.19;89.76;76933.56;4959380;29;20118;-90
2021/12/09 01:38:13;;;;;;;12.77;8.85;;;;;;;-144.19;89.62;76935.53;4959857;29;20122;-89
2021/12/09 01:40:59;;;;;;;19.08;9.90;;;;;;;-144.19;89.92;76935.53;4944805;29;20086;-88
2021/12/09 01:43:36;;;;;;;16.52;10.00;;;;;;;-144.19;89.97;76933.56;4928953;29;20063;-89
2021/12/09 01:46:22;;;;;;;16.77;9.43;;;;;;;-144.19;90.19;76933.56;5009563;28;20053;-88
2021/12/09 01:51:48;;;;;;;19.33;10.35;;;;;;;-144.19;90.05;76931.59;5044180;23;20504;-90
2021/12/09 01:54:14;;;;;;;16.52;9.70;;;;;;;-144.19;90.00;76929.63;5038620;28;20046;-91
2021/12/09 01:56:42;;;;;;;14.25;8.70;;;;;;;-144.19;89.76;76939.47;5021862;28;20053;-90
2021/12/09 01:59:11;;;;;;;16.77;10.27;;;;;;;-144.19;90.21;76929.63;5021358;28;20075;-88
2021/12/09 02:01:38;;;;;;;22.58;10.75;;;;;;;-144.19;90.13;76933.56;5021546;28;20045;-90
2021/12/09 02:04:08;;;;;;;16.27;11.07;;;;;;;-144.19;89.92;76931.59;5021643;28;20061;-91
2021/12/09 02:06:40;;;;;;;19.77;10.95;;;;;;;-144.19;90.05;76931.59;5021952;28;20132;-90
2021/12/09 02:09:14;;;;;;;15.55;11.98;;;;;;;-144.19;90.27;76933.56;5021977;28;20049;-88
2021/12/09 02:11:42;;;;;;;16.08;11.02;;;;;;;-144.19;90.02;76925.69;5021394;28;20042;-89
2021/12/09 02:14:23;;;;;;;19.63;11.30;;;;;;;-144.19;89.87;76917.81;5021713;28;20079;-91
2021/12/09 02:16:50;;;;;;;21.48;10.43;;;;;;;-144.19;90.22;76915.84;5021369;28;20111;-90
2021/12/09 02:19:18;;;;;;;18.13;11.77;;;;;;;-144.19;89.91;76917.81;5022262;28;20591;-89
2021/12/09 02:21:46;;;;;;;16.50;10.00;;;;;;;-144.19;89.86;76909.94;5021615;28;20095;-90
2021/12/09 02:24:26;;;;;;;15.52;10.65;;;;;;;-144.19;89.47;76906.00;5022573;28;20045;-89
2021/12/09 02:26:54;;;;;;;18.15;11.00;;;;;;;-144.19;89.32;76906.00;5020050;28;20084;-89
2021/12/09 02:29:22;;;;;;;18.67;9.98;;;;;;;-144.19;88.81;76896.16;5005774;28;20050;-91
2021/12/09 02:31:57;;;;;;;15.25;9.90;;;;;;;-144.19;88.83;76892.22;5021614;28;20084;-92
2021/12/09 02:34:25;;;;;;;21.95;10.70;;;;;;;-144.19;87.01;76870.56;5020945;28;20140;-88
2021/12/09 02:36:53;;;;;;;16.23;10.15;;;;;;;-144.19;86.55;76868.59;5020977;28;20045;-90
2021/12/09 02:39:30;;;;;;;22.30;10.38;;;;;;;-144.19;86.96;76854.81;5022298;28;20136;-91
2021/12/09 02:41:58;;;;;;;16.05;10.85;;;;;;;-144.19;86.49;76862.69;5021580;28;20060;-90
2021/12/09 02:44:27;;;;;;;18.58;10.73;;;;;;;-144.19;85.57;76850.88;5020352;28;20358;-89
2021/12/09 02:46:56;;;;;;;14.13;9.50;;;;;;;-144.19;85.25;76848.91;5020611;28;20049;-90
2021/12/09 02:49:28;;;;;;;19.85;10.45;;;;;;;-144.19;85.41;76854.81;5020857;28;20526;-90
2021/12/09 02:51:58;;;;;;;16.55;9.60;;;;;;;-144.19;84.61;76843.00;5021092;28;20095;-88
2021/12/09 02:54:29;;;;;;;18.67;9.35;;;;;;;-144.19;83.77;76835.13;5021243;28;20049;-90
2021/12/09 02:57:09;;;;;;;17.08;9.95;;;;;;;-144.19;83.61;76825.28;5021602;28;20144;-91
2021/12/09 02:59:36;;;;;;;15.05;9.10;;;;;;;-144.19;82.96;76827.25;5020090;28;20522;-90
2021/12/09 03:02:07;;;;;;;22.02;10.63;;;;;;;-144.19;82.89;76831.19;5020815;28;20060;-89
2021/12/09 03:04:47;;;;;;;16.27;9.38;;;;;;;-144.19;83.19;76831.19;5021164;28;20053;-92
2021/12/09 03:07:27;;;;;;;12.48;8.95;;;;;;;-144.19;82.25;76823.31;5006520;28;20140;-90
2021/12/09 03:10:18;;;;;;;17.20;9.07;;;;;;;-144.19;82.25;76819.38;5020629;28;20099;-89
2021/12/09 03:12:57;;;;;;;19.13;8.57;;;;;;;-144.19;82.09;76821.34;5037506;28;20076;-90
2021/12/09 03:15:24;;;;;;;15.43;8.40;;;;;;;-144.19;81.40;76803.63;5019848;28;20346;-89
2021/12/09 03:17:52;;;;;;;19.48;9.05;;;;;;;-144.19;81.67;76807.56;5020382;28;20060;-88
2021/12/09 03:20:20;;;;;;;15.77;9.18;;;;;;;-144.19;81.17;76799.69;5020538;28;20053;-89
2021/12/09 03:22:51;;;;;;;14.63;8.35;;;;;;;-144.19;80.66;76805.59;5019816;28;20418;-89
2021/12/09 03:25:22;;;;;;;13.38;8.32;;;;;;;-144.19;81.31;76803.63;5002330;28;20507;-87
2021/12/09 03:27:49;;;;;;;15.00;8.45;;;;;;;-144.19;81.31;76803.63;5020118;28;20514;-89
2021/12/09 03:30:19;;;;;;;15.63;9.15;;;;;;;-144.19;81.17;76803.63;5020969;28;20376;-89
2021/12/09 03:32:47;;;;;;;13.07;8.27;;;;;;;-144.19;81.23;76801.66;5020960;28;20065;-91
2021/12/09 03:35:29;;;;;;;17.08;9.77;;;;;;;-144.19;81.16;76807.56;4992357;28;20060;-89
2021/12/09 03:38:06;;;;;;;14.90;9.20;;;;;;;-144.19;81.18;76813.47;5019461;28;20145;-90
2021/12/09 03:40:47;;;;;;;15.52;9.80;;;;;;;-144.19;81.42;76813.47;5022267;28;20049;-89
2021/12/09 03:43:34;;;;;;;14.50;8.25;;;;;;;-144.19;80.96;76811.50;5021201;28;20049;-90
2021/12/09 03:46:03;;;;;;;16.30;9.20;;;;;;;-144.19;80.88;76811.50;5020472;28;20055;-91
2021/12/09 03:48:32;;;;;;;14.27;8.60;;;;;;;-144.19;80.75;76811.50;5020697;28;20056;-90
2021/12/09 03:51:02;;;;;;;15.00;9.38;;;;;;;-144.19;81.17;76817.41;5005949;28;20064;-90
2021/12/09 03:53:29;;;;;;;17.33;9.60;;;;;;;-144.19;81.39;76821.34;5019250;28;20076;-89
2021/12/09 03:55:56;;;;;;;15.02;8.27;;;;;;;-144.19;81.61;76833.16;5036790;28;20053;-90
2021/12/09 03:58:27;;;;;;;15.23;8.65;;;;;;;-144.19;81.94;76843.00;5039102;28;20498;-89
2021/12/09 04:00:55;;;;;;;13.07;8.18;;;;;;;-144.19;82.39;76841.03;5039638;28;20068;-89
2021/12/09 04:03:49;;;;;;;16.65;8.82;;;;;;;-144.19;82.46;76846.94;5039613;28;20057;-90
2021/12/09 04:06:16;;;;;;;12.90;8.57;;;;;;;-144.19;83.06;76862.69;5038923;28;20053;-92
2021/12/09 04:08:43;;;;;;;19.45;9.60;;;;;;;-144.19;83.24;76870.56;5038739;28;20462;-90
2021/12/09 04:11:10;;;;;;;17.30;9.70;;;;;;;-144.19;83.35;76876.47;5038822;28;20124;-90
2021/12/09 04:13:38;;;;;;;12.45;7.88;;;;;;;-144.19;83.30;76906.00;5038364;28;20076;-90
2021/12/09 04:16:09;;;;;;;15.45;8.63;;;;;;;-144.19;84.35;76894.19;5037668;28;20099;-89
2021/12/09 04:18:38;;;;;;;15.32;9.05;;;;;;;-144.19;83.67;76906.00;5038394;28;20049;-90
2021/12/09 04:21:07;;;;;;;14.73;9.13;;;;;;;-144.19;83.99;76929.63;5038762;28;20074;-91
2021/12/09 04:23:33;;;;;;;;;;;;;;;-144.19;85.22;76937.50;5039184;28;20135;-92
2021/12/09 04:26:00;;;;;;;17.65;10.00;;;;;;;-144.19;85.17;76949.31;5038163;28;20309;-92
2021/12/09 04:28:27;;;;;;;15.60;9.38;;;;;;;-144.19;85.32;76955.22;5038451;28;20491;-92
2021/12/09 04:30:57;;;;;;;20.73;10.02;;;;;;;-144.19;85.62;76959.13;5038136;28;20550;-92
2021/12/09 04:33:29;;;;;;;15.25;8.85;;;;;;;-144.19;85.86;76947.34;5056210;28;20406;-88
2021/12/09 04:36:10;;;;;;;16.80;8.95;;;;;;;-144.19;85.77;76949.31;5011287;28;20057;-90
2021/12/09 04:38:37;;;;;;;19.38;9.70;;;;;;;-144.19;85.65;76937.50;5037826;28;20056;-93
2021/12/09 04:41:05;;;;;;;13.93;9.27;;;;;;;-144.19;85.62;76939.47;5037725;28;20136;-93
2021/12/09 04:43:40;;;;;;;;;;;;;;;-144.19;85.75;76933.56;5038411;28;20111;-89
2021/12/09 04:46:07;;;;;;;14.85;8.80;;;;;;;-144.19;85.49;76949.31;5037662;28;19920;-91
2021/12/09 04:48:34;;;;;;;13.30;8.93;;;;;;;-144.19;85.29;76949.31;5039219;28;20106;-90
2021/12/09 04:51:01;;;;;;;20.42;9.82;;;;;;;-144.19;85.33;76961.13;5040535;28;20068;-90
2021/12/09 04:53:28;;;;;;;14.23;8.35;;;;;;;-144.19;84.94;76978.81;5041846;28;20425;-90
2021/12/09 04:55:54;;;;;;;17.38;10.32;;;;;;;-144.19;85.01;76996.53;5025675;28;20144;-90
2021/12/09 04:58:23;;;;;;;18.45;11.10;;;;;;;-144.19;86.18;76976.84;5021206;28;20141;-90
2021/12/09 05:00:52;;;;;;;17.20;10.35;;;;;;;-144.19;86.32;77000.47;5020910;28;20058;-91
2021/12/09 05:03:19;;;;;;;16.42;10.40;;;;;;;-144.19;86.70;77000.47;5020962;28;20056;-91
2021/12/09 05:05:51;;;;;;;20.70;11.10;;;;;;;-144.19;87.37;76996.53;5020677;28;20049;-90
2021/12/09 05:08:22;;;;;;;16.88;9.50;;;;;;;-144.19;87.11;77000.47;5021375;28;20072;-93
2021/12/09 05:11:03;;;;;;;14.55;9.45;;;;;;;-144.19;86.50;77016.22;5021625;28;20049;-92
2021/12/09 05:13:32;;;;;;;19.95;9.63;;;;;;;-144.19;86.73;77039.84;5020999;28;20152;-90
2021/12/09 05:16:01;;;;;;;14.40;9.35;;;;;;;-144.19;86.58;77051.66;5020553;28;20073;-92
2021/12/09 05:18:32;;;;;;;16.38;10.40;;;;;;;-144.19;87.14;77049.69;5021255;28;20061;-92
2021/12/09 05:21:01;;;;;;;19.83;10.48;;;;;;;-144.19;86.59;77061.50;5021459;28;20126;-92
2021/12/09 05:23:28;;;;;;;21.25;11.23;;;;;;;-144.19;86.79;77067.41;5020831;28;20132;-89
2021/12/09 05:25:55;;;;;;;;;;;;;;;-144.19;86.91;77081.19;5019658;28;20065;-91
2021/12/09 05:28:30;;;;;;;16.10;10.35;;;;;;;-144.19;86.75;77089.06;5020659;28;20008;-89
2021/12/09 05:33:43;;;;;;;14.98;10.07;;;;;;;-144.19;87.14;77110.72;5038782;28;20046;-91
2021/12/09 05:36:10;;;;;;;19.38;10.02;;;;;;;-144.19;87.25;77122.53;5019802;28;20049;-89
2021/12/09 05:38:37;;;;;;;18.60;9.82;;;;;;;-144.19;87.61;77134.34;5018392;28;20065;-90
2021/12/09 05:41:05;;;;;;;17.98;10.63;;;;;;;-144.19;87.69;77148.13;5020191;28;20061;-90
2021/12/09 05:43:52;;;;;;;17.88;10.75;;;;;;;-144.19;87.92;77146.16;5019454;28;20054;-89
2021/12/09 05:46:23;;;;;;;16.35;10.73;;;;;;;-144.19;88.13;77157.97;5019839;28;20057;-90
2021/12/09 05:49:06;;;;;;;17.38;10.32;;;;;;;-144.19;88.13;77173.72;5021915;28;20064;-90
2021/12/09 05:51:50;;;;;;;20.23;11.90;;;;;;;-144.19;88.24;77173.72;5018375;28;20046;-92
2021/12/09 05:54:17;;;;;;;17.13;11.05;;;;;;;-144.19;88.07;77177.66;5019852;28;20140;-89
2021/12/09 05:56:48;;;;;;;20.15;11.32;;;;;;;-144.19;88.58;77175.69;5019457;28;20046;-90
2021/12/09 05:59:18;;;;;;;20.70;11.20;;;;;;;-144.19;88.27;77185.53;5017236;28;20049;-91
2021/12/09 06:01:55;;;;;;;15.90;10.15;;;;;;;-144.19;88.32;77181.59;5020370;28;20087;-92
2021/12/09 06:04:27;;;;;;;19.67;12.13;;;;;;;-144.19;88.56;77187.50;5018667;28;20530;-90
2021/12/09 06:06:54;;;;;;;19.60;12.45;;;;;;;-144.19;88.73;77185.53;5003092;28;20061;-89
2021/12/09 06:09:23;;;;;;;23.63;12.02;;;;;;;-144.19;89.08;77177.66;5018307;28;20136;-90
2021/12/09 06:11:56;;;;;;;18.60;12.40;;;;;;;-144.19;89.21;77173.72;5018729;28;20681;-91
2021/12/09 06:14:23;;;;;;;22.08;12.60;;;;;;;-144.19;89.60;77157.97;5018635;28;20511;-92
2021/12/09 06:17:04;;;;;;;17.98;11.23;;;;;;;-144.19;89.57;77152.06;5022432;28;20046;-90
2021/12/09 06:19:45;;;;;;;16.67;11.73;;;;;;;-144.19;90.18;77148.13;5007319;28;20068;-91
2021/12/09 06:22:27;;;;;;;24.65;12.75;;;;;;;-144.19;91.02;77098.91;5033995;28;20632;-90
2021/12/09 06:25:40;;;;;;;19.85;12.95;;;;;;;-144.19;91.03;77108.75;4975675;28;20069;-90
2021/12/09 06:28:08;;;;;;;19.45;12.10;;;;;;;-144.19;91.11;77102.84;4975986;28;20050;-91
2021/12/09 06:30:37;;;;;;;24.58;11.48;;;;;;;-144.19;90.97;77083.16;4959505;28;20133;-91
2021/12/09 06:33:09;;;;;;;21.90;12.02;;;;;;;-144.19;90.40;77075.28;4960203;28;20051;-91
2021/12/09 06:35:40;;;;;;;17.75;11.13;;;;;;;-144.19;90.34;77071.34;4944965;28;20061;-91
2021/12/09 06:38:12;;;;;;;18.42;11.50;;;;;;;-144.19;89.98;77063.47;4959240;28;20055;-91
2021/12/09 06:40:40;;;;;;;19.42;11.23;;;;;;;-144.19;89.25;77071.34;4959491;28;20054;-90
2021/12/09 06:43:09;;;;;;;18.92;11.23;;;;;;;-144.19;89.51;77071.34;4975618;28;20042;-89
2021/12/09 06:45:37;;;;;;;17.42;11.00;;;;;;;-144.19;89.27;77069.38;4958673;28;20054;-92
2021/12/09 06:48:05;;;;;;;23.63;11.93;;;;;;;-144.19;89.16;77069.38;4960881;28;20595;-90
2021/12/09 06:50:32;;;;;;;20.15;11.20;;;;;;;-144.19;88.94;77077.25;4961516;28;20072;-90
2021/12/09 06:52:59;;;;;;;17.80;11.48;;;;;;;-144.19;89.11;77063.47;4957900;28;20047;-91
2021/12/09 06:55:27;;;;;;;20.00;11.65;;;;;;;-144.19;89.27;77067.41;4985475;28;20054;-90
2021/12/09 06:57:54;;;;;;;19.63;11.38;;;;;;;-144.19;89.20;77067.41;5051705;28;20061;-90
2021/12/09 07:00:24;;;;;;;18.45;10.30;;;;;;;-144.19;88.99;77069.38;5016935;28;20079;-93
2021/12/09 07:02:51;;;;;;;20.42;11.45;;;;;;;-144.19;89.07;77069.38;5017031;28;20045;-89
2021/12/09 07:05:20;;;;;;;;;;;;;;;-144.19;89.59;77067.41;5016814;28;20088;-90
2021/12/09 07:07:48;;;;;;;17.50;10.25;;;;;;;-144.19;88.82;77071.34;5033692;28;19999;-90
2021/12/09 07:10:15;;;;;;;23.45;12.25;;;;;;;-144.19;89.41;77075.28;5016735;28;20052;-91
2021/12/09 07:12:41;;;;;;;24.27;11.60;;;;;;;-144.19;88.94;77087.09;5034543;28;20049;-92
2021/12/09 07:15:21;;;;;;;20.70;12.23;;;;;;;-144.19;89.07;77091.03;5034798;28;20479;-90
2021/12/09 07:17:47;;;;;;;21.33;13.02;;;;;;;-144.19;89.31;77075.28;5016922;28;20053;-90
2021/12/09 07:20:17;;;;;;;23.05;12.18;;;;;;;-144.19;88.79;77067.41;5016446;28;20060;-92
2021/12/09 07:22:46;;;;;;;27.65;12.82;;;;;;;-144.19;89.12;77077.25;5016602;28;20104;-90
2021/12/09 07:25:12;;;;;;;24.10;12.07;;;;;;;-144.19;89.25;77083.16;5017311;28;20051;-93
2021/12/09 07:27:39;;;;;;;22.92;13.05;;;;;;;-144.19;88.83;77091.03;5018208;28;20055;-91
2021/12/09 07:30:07;;;;;;;31.30;14.60;;;;;;;-144.19;88.77;77075.28;5018175;28;20525;-90
2021/12/09 07:32:34;;;;;;;29.15;15.35;;;;;;;-144.19;88.94;77091.03;5017723;28;20423;-90
2021/12/09 07:35:02;;;;;;;38.80;18.75;;;;;;;-144.19;89.34;77096.94;5016136;28;20049;-91
2021/12/09 07:37:29;;;;;;;35.33;17.00;;;;;;;-144.19;89.71;77083.16;5015483;28;20080;-88
2021/12/09 07:39:55;;;;;;;37.00;15.05;;;;;;;-144.19;89.20;77106.78;5016145;28;20069;-88
2021/12/09 07:42:22;;;;;;;26.90;13.73;;;;;;;-144.19;89.80;77087.09;5015961;28;20042;-89
2021/12/09 07:44:49;;;;;;;;;;;;;;;-144.19;89.60;77087.09;5015328;28;20056;-88
2021/12/09 07:47:17;;;;;;;21.10;12.13;;;;;;;-144.19;89.16;77100.88;5032434;28;19925;-89
2021/12/09 07:49:45;;;;;;;21.27;11.88;;;;;;;-144.19;89.29;77106.78;5032841;28;20051;-88
2021/12/09 07:52:11;;;;;;;;;;;;;;;-144.19;89.28;77110.72;5032873;28;20514;-90
2021/12/09 07:54:37;;;;;;;20.17;10.75;;;;;;;-144.19;89.22;77118.59;5020619;28;19927;-90
2021/12/09 07:57:04;;;;;;;18.20;10.30;;;;;;;-144.19;89.41;77126.47;5032969;28;20551;-88
2021/12/09 07:59:32;;;;;;;17.88;10.02;;;;;;;-144.19;89.73;77130.41;5021112;28;20482;-89
2021/12/09 08:01:58;;;;;;;17.17;9.57;;;;;;;-144.19;89.87;77134.34;5015117;28;20060;-91
2021/12/09 08:04:24;;;;;;;20.15;12.27;;;;;;;-144.19;90.02;77122.53;5015740;28;20049;-87
2021/12/09 08:06:51;;;;;;;16.20;10.37;;;;;;;-144.19;90.25;77126.47;5016111;28;20055;-91
2021/12/09 08:09:17;;;;;;;16.50;10.80;;;;;;;-144.19;90.61;77106.78;5016779;28;20288;-90
2021/12/09 08:11:44;;;;;;;18.90;11.02;;;;;;;-144.19;90.31;77110.72;5015471;28;20121;-90
2021/12/09 08:14:12;;;;;;;20.95;11.15;;;;;;;-144.19;90.01;77114.66;5015396;28;20056;-89
2021/12/09 08:16:39;;;;;;;15.88;10.50;;;;;;;-144.19;89.62;77106.78;5015159;28;20045;-89
2021/12/09 08:19:17;;;;;;;;;;;;;;;-144.19;89.86;77091.03;5014973;28;20255;-88
2021/12/09 08:21:43;;;;;;;15.13;9.43;;;;;;;-144.19;88.57;77098.91;5015241;28;19921;-89
2021/12/09 08:24:13;;;;;;;20.70;12.38;;;;;;;-144.19;88.94;77102.84;5017902;28;20466;-89
2021/12/09 08:26:39;;;;;;;31.17;14.63;;;;;;;-144.19;88.96;77102.84;5018862;28;20055;-89
2021/12/09 08:29:06;;;;;;;32.77;16.47;;;;;;;-144.19;89.57;77094.97;5018808;28;20539;-89
2021/12/09 08:31:34;;;;;;;26.77;14.43;;;;;;;-144.19;89.73;77094.97;5036892;28;20298;-88
2021/12/09 08:34:11;;;;;;;23.73;13.00;;;;;;;-144.19;89.60;77091.03;5020660;28;20050;-89
2021/12/09 08:36:51;;;;;;;24.17;11.32;;;;;;;-144.19;89.29;77098.91;5020489;28;20052;-90
2021/12/09 08:39:19;;;;;;;23.63;12.55;;;;;;;-144.19;89.40;77106.78;5019453;28;20053;-89
2021/12/09 08:41:47;;;;;;;32.50;13.05;;;;;;;-144.19;89.28;77114.66;5036248;28;20063;-88
2021/12/09 08:44:13;;;;;;;;;;;;;;;-144.19;89.47;77114.66;5056358;28;20124;-90
2021/12/09 08:46:42;;;;;;;29.27;14.00;;;;;;;-144.19;90.03;77106.78;5050507;28;19920;-89
2021/12/09 08:49:08;;;;;;;20.42;11.27;;;;;;;-144.19;89.02;77079.22;5018198;28;20526;-91
2021/12/09 08:51:35;;;;;;;21.00;11.98;;;;;;;-144.19;88.47;77091.03;5035150;28;20050;-88
2021/12/09 08:54:02;;;;;;;26.23;11.60;;;;;;;-144.19;88.82;77085.13;5035249;28;20518;-87
2021/12/09 08:56:28;;;;;;;21.83;11.35;;;;;;;-144.19;88.78;77085.13;5037035;28;20102;-89
2021/12/09 08:58:55;;;;;;;30.38;15.60;;;;;;;-144.19;88.75;77059.53;5026577;28;20499;-88
2021/12/09 09:01:22;;;;;;;33.13;15.45;;;;;;;-144.19;87.91;77059.53;5040034;28;20056;-88
2021/12/09 09:03:49;;;;;;;26.70;14.27;;;;;;;-144.19;87.87;77051.66;5035626;28;20099;-89
2021/12/09 09:06:15;;;;;;;31.80;13.82;;;;;;;-144.19;87.75;77063.47;5039454;28;20052;-89
2021/12/09 09:08:42;;;;;;;24.67;11.98;;;;;;;-144.19;87.46;77043.78;5040289;28;20103;-89
2021/12/09 09:11:10;;;;;;;24.17;11.50;;;;;;;-144.19;86.39;77035.91;5039590;28;20053;-89
2021/12/09 09:13:37;;;;;;;24.48;11.13;;;;;;;-144.19;86.56;77030.00;5039401;28;20060;-89
2021/12/09 09:16:04;;;;;;;24.30;9.75;;;;;;;-144.19;85.83;77010.31;5038645;28;20131;-88
2021/12/09 09:18:31;;;;;;;20.88;12.02;;;;;;;-144.19;85.94;77016.22;5057303;28;20049;-90
2021/12/09 09:20:58;;;;;;;22.55;9.88;;;;;;;-144.19;85.49;77016.22;5056934;28;20140;-92
2021/12/09 09:23:24;;;;;;;24.08;10.40;;;;;;;-144.19;85.53;77012.28;5039592;28;20049;-89
2021/12/09 09:25:52;;;;;;;24.80;10.20;;;;;;;-144.19;85.89;77014.25;5039409;28;20053;-89
2021/12/09 09:28:25;;;;;;;17.50;8.25;;;;;;;-144.19;85.12;77004.41;5040178;28;20103;-90
2021/12/09 09:30:57;;;;;;;16.88;7.75;;;;;;;-144.19;84.64;77016.22;5038854;28;20053;-89
2021/12/09 09:33:28;;;;;;;19.50;8.25;;;;;;;-144.19;84.14;77004.41;5027349;28;20563;-89
2021/12/09 09:35:55;;;;;;;21.08;9.60;;;;;;;-144.19;84.35;76996.53;5027585;28;20110;-89
2021/12/09 09:38:23;;;;;;;;;;;;;;;-144.19;84.35;76992.59;5031802;28;20076;-89
2021/12/09 09:41:07;;;;;;;24.80;10.93;;;;;;;-144.19;83.83;76984.72;5054300;28;19920;-88
2021/12/09 09:46:22;;;;;;;27.98;13.52;;;;;;;-144.19;83.48;76961.13;5057492;28;20048;-86
2021/12/09 09:48:52;;;;;;;18.27;8.40;;;;;;;-144.19;82.91;76965.06;5056064;28;20063;-88
2021/12/09 09:51:20;;;;;;;22.80;9.73;;;;;;;-144.19;82.86;76972.94;5038051;28;20069;-89
2021/12/09 09:53:48;;;;;;;23.25;11.05;;;;;;;-144.19;83.32;76963.09;5032902;28;20124;-90
2021/12/09 09:56:19;;;;;;;13.52;7.20;;;;;;;-144.19;82.75;76965.06;5034777;28;20127;-89
2021/12/09 09:58:48;;;;;;;18.75;7.20;;;;;;;-144.19;81.72;76949.31;5034603;28;20060;-87
2021/12/09 10:01:16;;;;;;;19.80;9.02;;;;;;;-144.19;81.96;76931.59;5036106;28;20076;-87
2021/12/09 10:03:47;;;;;;;20.38;8.60;;;;;;;-144.19;81.53;76933.56;5041096;28;20499;-88
2021/12/09 10:06:16;;;;;;;16.95;7.20;;;;;;;-144.19;80.88;76925.69;5048381;28;20053;-89
2021/12/09 10:08:43;;;;;;;18.90;8.80;;;;;;;-144.19;80.92;76909.94;5017399;28;20045;-89
2021/12/09 10:11:10;;;;;;;18.10;8.32;;;;;;;-144.19;80.65;76896.16;5035587;28;20423;-88
2021/12/09 10:13:39;;;;;;;16.73;7.13;;;;;;;-144.19;79.06;76860.72;5019395;28;20068;-87
2021/12/09 10:16:24;;;;;;;19.33;8.00;;;;;;;-144.19;77.88;76815.44;5031039;28;20052;-90
2021/12/09 10:18:52;;;;;;;20.10;7.55;;;;;;;-144.19;76.31;76758.34;5033220;28;20060;-88
2021/12/09 10:21:25;;;;;;;12.85;5.65;;;;;;;-144.19;74.81;76783.94;5026644;28;20053;-87
2021/12/09 10:24:01;;;;;;;18.83;7.03;;;;;;;-144.19;74.39;76738.66;5027037;28;20510;-88
2021/12/09 10:26:34;;;;;;;18.27;7.13;;;;;;;-144.19;73.73;76709.13;5016130;28;20050;-89
2021/12/09 10:29:09;;;;;;;24.00;9.63;;;;;;;-144.19;72.63;76665.84;5020983;28;20060;-87
2021/12/09 10:31:49;;;;;;;15.43;5.93;;;;;;;-144.19;73.48;76709.13;5034517;28;20056;-87
2021/12/09 10:34:38;;;;;;;22.10;8.07;;;;;;;-144.19;72.61;76654.03;5035073;28;20136;-87
2021/12/09 10:37:16;;;;;;;;;;;;;;;-144.19;69.89;76600.88;5035115;28;20051;-88
2021/12/09 10:39:55;;;;;;;19.40;7.17;;;;;;;-144.19;69.96;76650.09;5017045;28;19920;-90
2021/12/09 10:42:43;;;;;;;16.48;6.80;;;;;;;-144.19;72.51;76722.91;5016431;28;20053;-88
2021/12/09 10:45:17;;;;;;;17.23;7.93;;;;;;;-144.19;72.53;76709.13;5016458;28;20427;-87
2021/12/09 10:48:01;;;;;;;21.92;6.47;;;;;;;-144.19;72.70;76689.44;5032933;28;20057;-90
2021/12/09 10:50:37;;;;;;;20.52;8.10;;;;;;;-144.19;69.66;76549.69;5016649;28;20053;-90
2021/12/09 10:55:51;;;;;;;22.45;8.35;;;;;;;-144.19;70.86;76620.56;5047537;28;20124;-89
2021/12/09 10:58:20;;;;;;;19.73;8.27;;;;;;;-144.19;69.42;76634.34;5035608;28;20433;-87
2021/12/09 11:00:54;;;;;;;20.00;9.35;;;;;;;-144.19;67.82;76516.22;5035034;28;20049;-84
2021/12/09 11:03:49;;;;;;;18.25;8.55;;;;;;;-144.19;67.04;76524.09;5035819;28;20064;-88
2021/12/09 11:06:19;;;;;;;21.45;9.02;;;;;;;-144.19;67.77;76482.78;5033023;28;20072;-85
2021/12/09 11:08:47;;;;;;;21.40;9.45;;;;;;;-144.19;66.35;76480.81;5037490;28;20132;-89
2021/12/09 11:11:16;;;;;;;21.38;8.07;;;;;;;-144.19;66.06;76476.88;5039051;28;20499;-90
2021/12/09 11:14:11;;;;;;;11.85;5.53;;;;;;;-144.19;67.26;76512.28;5037938;28;20051;-89
2021/12/09 11:16:44;;;;;;;14.48;6.65;;;;;;;-144.19;67.08;76535.91;5036950;28;20060;-90
2021/12/09 11:19:25;;;;;;;24.23;7.28;;;;;;;-144.19;67.85;76530.00;5038802;28;20053;-92
2021/12/09 11:21:59;;;;;;;15.05;6.20;;;;;;;-144.19;67.16;76543.78;5056430;28;20064;-89
2021/12/09 11:24:31;;;;;;;17.83;5.93;;;;;;;-144.19;67.68;76571.34;5055679;28;20418;-89
2021/12/09 11:27:03;;;;;;;16.23;7.70;;;;;;;-144.19;70.12;76650.09;5038260;28;20048;-88
2021/12/09 11:29:45;;;;;;;21.23;9.05;;;;;;;-144.19;71.41;76697.31;5055791;28;20049;-88
2021/12/09 11:32:41;;;;;;;22.23;9.88;;;;;;;-144.19;71.87;76695.34;5037954;28;20084;-90
2021/12/09 11:35:13;;;;;;;18.92;8.02;;;;;;;-144.19;73.02;76701.25;5037810;28;20052;-90
2021/12/09 11:38:04;;;;;;;22.65;11.20;;;;;;;-144.19;73.82;76699.28;5054849;28;20052;-87
2021/12/09 11:40:42;;;;;;;29.05;10.98;;;;;;;-144.19;74.37;76705.19;5034868;28;20154;-89
2021/12/09 11:43:12;;;;;;;27.25;11.60;;;;;;;-144.19;74.19;76711.09;5039279;28;20059;-87
2021/12/09 11:45:46;;;;;;;21.23;11.30;;;;;;;-144.19;75.72;76787.88;5038469;28;20139;-87
2021/12/09 11:48:14;;;;;;;21.90;11.07;;;;;;;-144.19;77.01;76791.81;5055230;28;20059;-90
2021/12/09 11:50:45;;;;;;;30.33;15.55;;;;;;;-144.19;77.64;76740.63;5035127;28;20056;-90
2021/12/09 11:53:14;;;;;;;25.48;13.13;;;;;;;-144.19;77.23;76736.69;5035841;28;20050;-90
2021/12/09 11:55:46;;;;;;;28.98;13.93;;;;;;;-144.19;76.20;76701.25;5040092;28;20056;-88
2021/12/09 11:58:22;;;;;;;18.70;9.85;;;;;;;-144.19;75.96;76705.19;5038711;28;20049;-88
2021/12/09 12:15:28;;;;;;;21.35;10.48;;;;;;;-144.19;77.22;76711.09;5035991;28;20049;-90
2021/12/09 12:21:39;;;;;;;18.77;9.55;;;;;;;-144.19;77.84;76717.00;5035790;28;20050;-89